Time;durP1;ratioP1;P1;durP2;ratioP2;P2;SDS_P1;SDS_P2;PMS_P1;PMS_P2;Temp;Humidity;BMP_temperature;BMP_pressure;BME280_temperature;BME280_humidity;BME280_pressure;Samples;Min_cycle;Max_cycle;Signal;HPM_P1;HPM_P2
2022/05/23 00:01:21;;;;;;;5.75;3.00;;;13.40;99.90;;;;;;5073053;28;20036;-61
2022/05/23 00:03:47;;;;;;;7.13;3.35;;;13.40;99.90;;;;;;5072265;28;20074;-61
2022/05/23 00:06:19;;;;;;;5.13;3.00;;;13.40;99.90;;;;;;5054604;28;20025;-61
2022/05/23 00:08:45;;;;;;;8.80;2.90;;;13.30;99.90;;;;;;5052477;28;20053;-61
2022/05/23 00:11:11;;;;;;;5.03;2.90;;;13.30;99.90;;;;;;5051972;28;20072;-61
2022/05/23 00:13:37;;;;;;;4.78;2.58;;;13.30;99.90;;;;;;5052774;28;20025;-61
2022/05/23 00:16:03;;;;;;;6.43;2.53;;;13.30;99.90;;;;;;5052585;28;20083;-61
2022/05/23 00:18:29;;;;;;;5.97;3.30;;;13.30;99.90;;;;;;5052806;28;20431;-61
2022/05/23 00:20:55;;;;;;;7.53;3.50;;;13.20;99.90;;;;;;5059375;28;20032;-61
2022/05/23 00:23:22;;;;;;;5.15;3.38;;;13.20;99.90;;;;;;5068619;28;20078;-61
2022/05/23 00:25:48;;;;;;;4.20;3.30;;;13.20;99.90;;;;;;5064802;28;20037;-61
2022/05/23 00:28:14;;;;;;;5.50;2.92;;;13.20;99.90;;;;;;5052591;28;20434;-61
2022/05/23 00:30:40;;;;;;;11.98;3.70;;;13.20;99.90;;;;;;5052240;28;20123;-61
2022/05/23 00:35:54;;;;;;;7.05;3.00;;;13.10;99.90;;;;;;5069209;28;20083;-60
2022/05/23 00:38:20;;;;;;;5.95;3.03;;;13.10;99.90;;;;;;5069602;28;20388;-60
2022/05/23 00:40:46;;;;;;;5.43;3.60;;;13.10;99.90;;;;;;5069570;28;20077;-60
2022/05/23 00:43:20;;;;;;;9.05;3.78;;;13.20;99.90;;;;;;5069313;28;20400;-61
2022/05/23 00:45:47;;;;;;;9.93;3.80;;;13.20;99.90;;;;;;5068716;28;20495;-61
2022/05/23 00:48:15;;;;;;;7.70;3.95;;;13.20;99.90;;;;;;5068940;28;20465;-61
2022/05/23 00:50:44;;;;;;;12.80;4.57;;;13.20;99.90;;;;;;5068615;28;20024;-60
2022/05/23 00:53:10;;;;;;;11.60;3.85;;;13.20;99.90;;;;;;5068042;28;20052;-61
2022/05/23 00:55:41;;;;;;;10.68;4.22;;;13.20;99.90;;;;;;5067658;28;20439;-61
2022/05/23 00:58:21;;;;;;;10.07;4.10;;;13.30;99.90;;;;;;5069368;28;20082;-61
2022/05/23 01:00:48;;;;;;;9.07;4.18;;;13.30;99.90;;;;;;5069489;28;20472;-61
2022/05/23 01:03:17;;;;;;;8.00;4.85;;;13.30;99.90;;;;;;5068769;28;20620;-61
2022/05/23 01:05:44;;;;;;;8.32;5.25;;;13.30;99.90;;;;;;5066405;28;20025;-62
2022/05/23 01:08:10;;;;;;;12.27;4.40;;;13.30;99.90;;;;;;5068848;28;20040;-61
2022/05/23 01:10:37;;;;;;;9.07;4.45;;;13.30;99.90;;;;;;5067715;28;20028;-61
2022/05/23 01:13:03;;;;;;;;;;;13.30;99.90;;;;;;5069268;28;20029;-61
2022/05/23 01:15:32;;;;;;;8.20;4.38;;;13.30;99.90;;;;;;5068645;28;19923;-61
2022/05/23 01:17:58;;;;;;;8.25;4.75;;;13.30;99.90;;;;;;5068347;28;20024;-62
2022/05/23 01:20:25;;;;;;;7.45;4.40;;;13.30;99.90;;;;;;5068177;28;20484;-62
2022/05/23 01:22:55;;;;;;;9.43;4.80;;;13.30;99.90;;;;;;5068222;28;20036;-61
2022/05/23 01:25:24;;;;;;;10.55;4.57;;;13.30;99.90;;;;;;5068820;28;20032;-61
2022/05/23 01:27:52;;;;;;;9.23;4.57;;;13.20;99.90;;;;;;5067885;28;20039;-62
2022/05/23 01:30:18;;;;;;;11.20;4.50;;;13.20;99.90;;;;;;5067253;28;20202;-61
2022/05/23 01:32:45;;;;;;;8.00;4.20;;;13.10;99.90;;;;;;5067318;28;20051;-61
2022/05/23 01:35:12;;;;;;;8.23;4.43;;;13.10;99.90;;;;;;5068381;28;20029;-61
2022/05/23 01:37:38;;;;;;;8.70;4.78;;;13.10;99.90;;;;;;5068597;28;20028;-61
2022/05/23 01:40:06;;;;;;;8.55;5.18;;;13.10;99.90;;;;;;5067159;28;20044;-61
2022/05/23 01:42:32;;;;;;;7.47;5.22;;;13.00;99.90;;;;;;5068273;28;20025;-60
2022/05/23 01:44:58;;;;;;;10.15;5.53;;;13.00;99.90;;;;;;5068530;28;20081;-61
2022/05/23 01:47:24;;;;;;;13.02;6.18;;;12.90;99.90;;;;;;5068108;28;20089;-61
2022/05/23 01:49:50;;;;;;;9.43;5.13;;;13.00;99.90;;;;;;5068440;28;20029;-61
2022/05/23 01:52:16;;;;;;;11.75;5.97;;;13.00;99.90;;;;;;5066990;28;20029;-61
2022/05/23 01:54:41;;;;;;;9.88;6.03;;;13.00;99.90;;;;;;5068619;28;20074;-61
2022/05/23 01:57:10;;;;;;;14.45;6.85;;;12.90;99.90;;;;;;5068187;28;20021;-60
2022/05/23 02:02:20;;;;;;;11.15;5.63;;;12.90;99.90;;;;;;5066418;28;20043;-61
2022/05/23 02:04:46;;;;;;;9.70;6.00;;;12.90;99.90;;;;;;5068593;28;20500;-61
2022/05/23 02:07:13;;;;;;;13.82;5.88;;;12.90;99.90;;;;;;5068159;28;20391;-61
2022/05/23 02:09:40;;;;;;;14.82;6.05;;;12.90;99.90;;;;;;5064970;28;20490;-60
2022/05/23 02:12:07;;;;;;;9.88;6.07;;;12.90;99.90;;;;;;5067936;28;20116;-61
2022/05/23 02:14:34;;;;;;;11.43;5.97;;;12.90;99.90;;;;;;5067159;28;20029;-62
2022/05/23 02:17:00;;;;;;;10.70;5.88;;;12.90;99.90;;;;;;5068261;28;20054;-61
2022/05/23 02:19:26;;;;;;;11.90;6.50;;;12.90;99.90;;;;;;5068839;28;20396;-61
2022/05/23 02:21:51;;;;;;;10.35;5.75;;;12.90;99.90;;;;;;5067682;28;20043;-61
2022/05/23 02:24:18;;;;;;;12.20;5.80;;;12.90;99.90;;;;;;5068217;28;20020;-62
2022/05/23 02:26:43;;;;;;;7.53;5.82;;;12.90;99.90;;;;;;5068261;28;20517;-61
2022/05/23 02:29:10;;;;;;;9.32;5.70;;;12.90;99.90;;;;;;5067829;28;20027;-61
2022/05/23 02:31:36;;;;;;;13.57;6.35;;;12.80;99.90;;;;;;5066163;28;20040;-61
2022/05/23 02:34:02;;;;;;;13.30;5.95;;;12.80;99.90;;;;;;5070237;28;20023;-61
2022/05/23 02:36:28;;;;;;;11.70;5.65;;;12.80;99.90;;;;;;5071569;28;20075;-61
2022/05/23 02:38:55;;;;;;;9.88;5.13;;;12.80;99.90;;;;;;5070719;28;20480;-61
2022/05/23 02:41:22;;;;;;;13.43;6.78;;;12.80;99.90;;;;;;5070631;28;20046;-62
2022/05/23 02:43:48;;;;;;;9.75;6.30;;;12.80;99.90;;;;;;5070738;28;20029;-61
2022/05/23 02:46:14;;;;;;;16.20;6.32;;;12.80;99.90;;;;;;5070648;28;20069;-61
2022/05/23 02:48:39;;;;;;;13.32;6.60;;;12.80;99.90;;;;;;5070886;28;20056;-61
2022/05/23 02:51:05;;;;;;;12.70;7.20;;;12.80;99.90;;;;;;5068134;28;20391;-62
2022/05/23 02:53:31;;;;;;;10.95;6.40;;;12.80;99.90;;;;;;5069394;28;20040;-61
2022/05/23 02:55:56;;;;;;;10.48;6.50;;;12.70;99.90;;;;;;5069780;28;20377;-62
2022/05/23 02:58:22;;;;;;;13.35;7.10;;;12.80;99.90;;;;;;5070420;28;20032;-61
2022/05/23 03:00:48;;;;;;;13.20;7.00;;;12.80;99.90;;;;;;5070222;28;20025;-62
2022/05/23 03:03:14;;;;;;;16.10;7.57;;;12.80;99.90;;;;;;5071425;28;20032;-62
2022/05/23 03:05:43;;;;;;;18.02;7.50;;;12.80;99.90;;;;;;5071265;28;20504;-61
2022/05/23 03:08:10;;;;;;;13.18;7.45;;;12.70;99.90;;;;;;5070994;28;20114;-61
2022/05/23 03:10:37;;;;;;;14.65;8.02;;;12.70;99.90;;;;;;5068066;28;20035;-62
2022/05/23 03:13:03;;;;;;;14.50;7.75;;;12.60;99.90;;;;;;5071328;28;20020;-61
2022/05/23 03:15:29;;;;;;;14.98;8.25;;;12.60;99.90;;;;;;5070850;28;20033;-61
2022/05/23 03:17:55;;;;;;;18.20;9.48;;;12.60;99.90;;;;;;5071125;28;20027;-61
2022/05/23 03:20:21;;;;;;;17.27;9.30;;;12.60;99.90;;;;;;5070101;28;20099;-61
2022/05/23 03:28:16;;;;;;;21.50;8.40;;;12.60;99.90;;;;;;5071124;28;20032;-62
2022/05/23 03:30:41;;;;;;;20.90;7.93;;;12.60;99.90;;;;;;5070687;28;20404;-62
2022/05/23 03:33:08;;;;;;;11.73;7.18;;;12.70;99.90;;;;;;5070712;28;20025;-61
2022/05/23 03:35:34;;;;;;;13.55;7.38;;;12.70;99.90;;;;;;5070601;28;20123;-61
2022/05/23 03:38:01;;;;;;;17.45;7.57;;;12.60;99.90;;;;;;5070565;28;20017;-62
2022/05/23 03:40:27;;;;;;;18.67;7.43;;;12.60;99.90;;;;;;5070861;28;20485;-61
2022/05/23 03:42:54;;;;;;;13.05;7.30;;;12.70;99.90;;;;;;5070527;28;20323;-61
2022/05/23 03:45:20;;;;;;;13.32;8.15;;;12.70;99.90;;;;;;5069204;28;20077;-62
2022/05/23 03:47:46;;;;;;;21.45;8.73;;;12.70;99.90;;;;;;5069301;28;20498;-62
2022/05/23 03:50:13;;;;;;;17.15;8.15;;;12.70;99.90;;;;;;5069342;28;20025;-62
2022/05/23 03:52:38;;;;;;;17.55;8.38;;;12.70;99.90;;;;;;5070339;28;20065;-60
2022/05/23 03:55:05;;;;;;;19.13;8.65;;;12.80;99.90;;;;;;5070166;28;20111;-61
2022/05/23 03:57:31;;;;;;;21.42;9.48;;;12.80;99.90;;;;;;5070993;28;20386;-61
2022/05/23 03:59:57;;;;;;;17.42;9.68;;;12.70;99.90;;;;;;5069147;28;20043;-61
2022/05/23 04:02:23;;;;;;;22.35;9.70;;;12.70;99.90;;;;;;5069415;28;20028;-61
2022/05/23 04:04:49;;;;;;;21.70;9.10;;;12.70;99.90;;;;;;5071594;28;20047;-61
2022/05/23 04:07:15;;;;;;;25.98;9.90;;;12.60;99.90;;;;;;5070204;28;20032;-61
2022/05/23 04:09:42;;;;;;;26.02;12.75;;;12.60;99.90;;;;;;5069364;28;20051;-61
2022/05/23 04:12:08;;;;;;;23.95;11.43;;;12.60;99.90;;;;;;5070663;28;20115;-62
2022/05/23 04:14:33;;;;;;;22.73;11.65;;;12.60;99.90;;;;;;5068706;28;20021;-63
2022/05/23 04:16:59;;;;;;;28.80;12.40;;;12.60;99.90;;;;;;5069620;28;20032;-62
2022/05/23 04:19:25;;;;;;;27.27;11.95;;;12.60;99.90;;;;;;5069253;28;20025;-62
2022/05/23 04:21:51;;;;;;;21.80;11.43;;;12.60;99.90;;;;;;5067314;28;20031;-62
2022/05/23 04:24:18;;;;;;;21.40;10.93;;;12.60;99.90;;;;;;5070031;28;20028;-62
2022/05/23 04:26:44;;;;;;;24.13;10.93;;;12.60;99.90;;;;;;5069963;28;20387;-63
2022/05/23 04:29:10;;;;;;;26.23;11.98;;;12.60;99.90;;;;;;5068637;28;20028;-63
2022/05/23 04:31:36;;;;;;;30.17;12.15;;;12.60;99.90;;;;;;5067207;28;20483;-62
2022/05/23 04:36:48;;;;;;;20.77;10.88;;;12.50;99.90;;;;;;5069272;28;20051;-62
2022/05/23 04:39:14;;;;;;;26.55;10.82;;;12.50;99.90;;;;;;5068546;28;20032;-62
2022/05/23 04:41:40;;;;;;;20.88;11.02;;;12.50;99.90;;;;;;5068325;28;20048;-63
2022/05/23 04:44:07;;;;;;;25.95;10.57;;;12.40;99.90;;;;;;5067362;28;20071;-63
2022/05/23 04:46:33;;;;;;;20.90;10.80;;;12.40;99.90;;;;;;5070022;28;20115;-63
2022/05/23 04:51:43;;;;;;;20.63;9.27;;;12.30;99.90;;;;;;5068696;28;20034;-63
2022/05/23 04:54:09;;;;;;;23.25;10.82;;;12.40;99.90;;;;;;5069365;28;20020;-64
2022/05/23 04:56:37;;;;;;;24.13;11.57;;;12.30;99.90;;;;;;5068744;28;20013;-64
2022/05/23 04:59:04;;;;;;;24.67;10.82;;;12.30;99.90;;;;;;5068052;28;20393;-64
2022/05/23 05:01:30;;;;;;;23.55;11.60;;;12.30;99.90;;;;;;5064648;28;20036;-64
2022/05/23 05:03:57;;;;;;;22.13;11.43;;;12.30;99.90;;;;;;5052555;28;20031;-64
2022/05/23 05:06:26;;;;;;;20.40;9.43;;;12.30;99.90;;;;;;5071143;28;20074;-63
2022/05/23 05:08:52;;;;;;;18.95;9.63;;;12.40;99.90;;;;;;5070533;28;20086;-64
2022/05/23 05:11:18;;;;;;;21.35;9.63;;;12.40;99.90;;;;;;5069924;28;20025;-64
2022/05/23 05:13:45;;;;;;;23.73;10.27;;;12.30;99.90;;;;;;5071108;28;20032;-64
2022/05/23 05:16:12;;;;;;;20.20;9.57;;;12.30;99.90;;;;;;5069226;28;20310;-63
2022/05/23 05:18:38;;;;;;;19.20;9.98;;;12.30;99.90;;;;;;5070652;28;20035;-63
2022/05/23 05:21:09;;;;;;;20.17;9.20;;;12.40;99.90;;;;;;5067346;28;20055;-63
2022/05/23 05:23:35;;;;;;;20.38;9.13;;;12.30;99.90;;;;;;5070505;28;20024;-62
2022/05/23 05:26:05;;;;;;;16.02;8.40;;;12.40;99.90;;;;;;5065397;28;20035;-63
2022/05/23 05:28:33;;;;;;;18.00;8.00;;;12.40;99.90;;;;;;5070063;28;20040;-64
2022/05/23 05:31:09;;;;;;;22.33;8.38;;;12.50;99.90;;;;;;5057912;28;20037;-64
2022/05/23 05:33:44;;;;;;;18.23;7.53;;;12.50;99.90;;;;;;5051334;28;20028;-63
2022/05/23 05:36:17;;;;;;;13.02;6.72;;;12.50;99.90;;;;;;5071046;28;20020;-64
2022/05/23 05:39:01;;;;;;;18.65;7.93;;;12.50;99.90;;;;;;5071667;28;20016;-63
2022/05/23 05:41:46;;;;;;;13.93;7.78;;;12.50;99.90;;;;;;5053087;28;20462;-63
2022/05/23 05:44:19;;;;;;;12.73;6.95;;;12.60;99.90;;;;;;5075340;28;20409;-63
2022/05/23 05:46:48;;;;;;;17.20;7.30;;;12.70;99.90;;;;;;5070309;28;20117;-63
2022/05/23 05:49:20;;;;;;;15.85;8.48;;;12.70;99.90;;;;;;5055614;28;20416;-63
2022/05/23 05:51:49;;;;;;;21.38;8.38;;;12.80;99.90;;;;;;5068207;28;20541;-62
2022/05/23 05:54:21;;;;;;;11.90;6.68;;;12.80;99.90;;;;;;5069828;28;20036;-62
2022/05/23 05:56:48;;;;;;;14.13;7.00;;;12.80;99.90;;;;;;5067996;28;20036;-62
2022/05/23 05:59:15;;;;;;;12.05;6.13;;;12.80;99.90;;;;;;5070362;28;20164;-62
2022/05/23 06:01:40;;;;;;;12.00;5.97;;;12.80;99.90;;;;;;5063494;28;20036;-62
2022/05/23 06:04:06;;;;;;;11.65;6.28;;;12.80;99.90;;;;;;5069888;28;20028;-63
2022/05/23 06:12:00;;;;;;;10.85;5.57;;;12.80;99.90;;;;;;5073562;28;20384;-63
2022/05/23 06:14:26;;;;;;;11.32;5.68;;;12.80;99.90;;;;;;5074374;28;20020;-63
2022/05/23 06:16:52;;;;;;;12.07;5.35;;;12.90;99.90;;;;;;5072528;28;20039;-63
2022/05/23 06:19:17;;;;;;;11.27;5.57;;;12.80;99.90;;;;;;5074291;28;20025;-63
2022/05/23 06:21:43;;;;;;;13.48;5.75;;;12.80;99.90;;;;;;5074464;28;20472;-62
2022/05/23 06:24:09;;;;;;;9.50;5.65;;;12.80;99.90;;;;;;5057758;28;20032;-63
2022/05/23 06:26:34;;;;;;;15.45;6.32;;;12.80;99.90;;;;;;5061100;28;20464;-62
2022/05/23 06:29:00;;;;;;;11.43;5.47;;;12.70;99.90;;;;;;5074298;28;20035;-62
2022/05/23 06:31:26;;;;;;;8.55;5.53;;;12.70;99.90;;;;;;5072813;28;20075;-62
2022/05/23 06:33:52;;;;;;;11.93;4.90;;;12.80;99.90;;;;;;5074237;28;20370;-63
2022/05/23 06:36:18;;;;;;;11.35;5.32;;;12.80;99.90;;;;;;5073551;28;20035;-62
2022/05/23 06:38:44;;;;;;;13.65;5.93;;;12.80;99.90;;;;;;5074977;28;20085;-60
2022/05/23 06:41:10;;;;;;;14.18;6.00;;;12.80;99.90;;;;;;5074730;28;20373;-59
2022/05/23 06:43:38;;;;;;;10.55;5.32;;;12.80;99.90;;;;;;5074561;28;20110;-63
2022/05/23 06:46:05;;;;;;;9.70;5.93;;;12.80;99.90;;;;;;5072023;28;20028;-64
2022/05/23 06:48:31;;;;;;;13.18;6.75;;;12.80;99.90;;;;;;5054503;28;20029;-64
2022/05/23 06:50:57;;;;;;;11.80;6.05;;;12.80;99.90;;;;;;5036631;28;20021;-64
2022/05/23 06:53:25;;;;;;;12.07;7.05;;;12.90;99.90;;;;;;5055523;28;20057;-65
2022/05/23 06:55:51;;;;;;;;;;;12.90;99.90;;;;;;5074852;28;20025;-65
2022/05/23 06:58:19;;;;;;;11.43;5.75;;;12.90;99.90;;;;;;5070713;28;19904;-64
2022/05/23 07:00:45;;;;;;;10.60;5.40;;;12.90;99.90;;;;;;5073204;28;20174;-64
2022/05/23 07:03:11;;;;;;;9.13;6.05;;;12.90;99.90;;;;;;5074274;28;20474;-65
2022/05/23 07:13:52;;;;;;;10.98;5.47;;;13.00;99.90;;;;;;5072810;28;20043;-60
2022/05/23 07:16:18;;;;;;;9.95;5.95;;;13.00;99.90;;;;;;5064331;28;20024;-62
2022/05/23 07:18:45;;;;;;;12.00;6.00;;;13.10;99.90;;;;;;5073298;28;20025;-61
2022/05/23 07:21:11;;;;;;;13.02;6.35;;;13.10;99.90;;;;;;5073586;28;20056;-60
2022/05/23 07:23:37;;;;;;;10.10;6.22;;;13.10;99.90;;;;;;5073884;28;20066;-64
2022/05/23 07:26:06;;;;;;;9.00;5.00;;;13.20;99.90;;;;;;5073603;28;20032;-60
2022/05/23 07:28:32;;;;;;;10.45;5.25;;;13.30;99.90;;;;;;5074037;28;20086;-59
2022/05/23 07:30:58;;;;;;;9.00;5.25;;;13.30;99.90;;;;;;5059859;28;20040;-60
2022/05/23 07:33:24;;;;;;;10.57;5.47;;;13.40;99.90;;;;;;5073046;28;20036;-60
2022/05/23 07:35:57;;;;;;;12.40;5.63;;;13.40;99.90;;;;;;5073651;28;20029;-60
2022/05/23 07:38:24;;;;;;;11.80;5.80;;;13.40;99.90;;;;;;5068054;28;20017;-60
2022/05/23 07:40:53;;;;;;;10.80;5.07;;;13.40;99.90;;;;;;5061771;28;20079;-60
2022/05/23 07:43:20;;;;;;;9.90;4.43;;;13.40;99.90;;;;;;5073959;28;20044;-61
2022/05/23 07:45:48;;;;;;;6.50;4.40;;;13.40;99.90;;;;;;5057767;28;20425;-61
2022/05/23 07:48:15;;;;;;;7.68;4.35;;;13.50;99.90;;;;;;5073299;28;20416;-60
2022/05/23 07:50:43;;;;;;;6.53;4.03;;;13.50;99.90;;;;;;5072908;28;20579;-60
2022/05/23 08:01:28;;;;;;;7.10;4.10;;;13.70;99.90;;;;;;5071665;28;20086;-62
2022/05/23 08:03:54;;;;;;;7.72;3.60;;;13.70;99.90;;;;;;5052702;28;20029;-67
2022/05/23 08:06:21;;;;;;;5.43;3.42;;;13.80;99.90;;;;;;5065949;28;20131;-63
2022/05/23 08:08:46;;;;;;;6.13;3.70;;;13.90;99.90;;;;;;5073072;28;20505;-63
2022/05/23 08:11:13;;;;;;;6.57;4.03;;;14.00;99.90;;;;;;5058440;28;20083;-60
2022/05/23 08:13:42;;;;;;;6.60;3.50;;;14.10;99.90;;;;;;5053367;28;20025;-60
2022/05/23 08:16:08;;;;;;;6.95;3.13;;;14.10;99.90;;;;;;5053284;28;20021;-61
2022/05/23 08:18:34;;;;;;;6.88;3.78;;;14.20;99.90;;;;;;5052573;28;20032;-60
2022/05/23 08:21:00;;;;;;;7.07;3.78;;;14.20;99.90;;;;;;5052758;28;20032;-60
2022/05/23 08:23:27;;;;;;;6.93;4.47;;;14.20;99.90;;;;;;5061997;28;20111;-61
2022/05/23 08:25:53;;;;;;;6.30;3.97;;;14.30;99.90;;;;;;5069267;28;20044;-61
2022/05/23 08:28:19;;;;;;;4.90;3.38;;;14.30;99.90;;;;;;5052383;28;20029;-61
2022/05/23 08:30:45;;;;;;;7.07;3.65;;;14.40;99.90;;;;;;5057254;28;20044;-60
2022/05/23 08:33:11;;;;;;;6.47;3.28;;;14.40;99.90;;;;;;5072016;28;20036;-61
2022/05/23 08:35:37;;;;;;;6.25;3.45;;;14.50;99.90;;;;;;5071679;28;20028;-60
2022/05/23 08:38:04;;;;;;;7.35;3.50;;;14.50;99.90;;;;;;5052183;28;20469;-60
2022/05/23 08:41:13;;;;;;;8.43;3.20;;;14.50;99.90;;;;;;5052440;28;20032;-60
2022/05/23 08:43:51;;;;;;;6.20;3.35;;;14.50;99.90;;;;;;5034361;28;20044;-64
2022/05/23 08:46:44;;;;;;;7.07;3.53;;;14.50;99.90;;;;;;5063039;28;20024;-61
2022/05/23 08:49:24;;;;;;;6.80;3.92;;;14.40;99.90;;;;;;5051770;28;20040;-60
2022/05/23 08:52:16;;;;;;;7.70;3.55;;;14.40;99.90;;;;;;5052193;28;20025;-61
2022/05/23 08:54:54;;;;;;;5.47;3.30;;;14.50;99.90;;;;;;5052032;28;20025;-60
2022/05/23 08:57:25;;;;;;;5.15;3.80;;;14.50;99.90;;;;;;5051817;28;20057;-61
2022/05/23 08:59:54;;;;;;;5.43;3.60;;;14.50;99.90;;;;;;5053751;28;20503;-62
2022/05/23 09:02:31;;;;;;;4.75;3.45;;;14.50;99.90;;;;;;5071465;28;20069;-61
2022/05/23 09:05:17;;;;;;;6.40;3.08;;;14.60;99.90;;;;;;5052008;28;20029;-61
2022/05/23 09:07:56;;;;;;;6.47;3.30;;;14.70;99.90;;;;;;5051606;28;20021;-65
2022/05/23 09:10:24;;;;;;;3.95;2.95;;;14.70;99.90;;;;;;5071389;28;20722;-66
2022/05/23 09:12:53;;;;;;;6.72;3.50;;;14.70;99.90;;;;;;5071642;28;20030;-61
2022/05/23 09:15:20;;;;;;;6.47;3.30;;;14.70;99.90;;;;;;5071292;28;20016;-61
2022/05/23 09:17:54;;;;;;;6.95;3.20;;;14.70;99.90;;;;;;5055599;28;20108;-63
2022/05/23 09:20:48;;;;;;;6.30;3.47;;;14.70;99.90;;;;;;5059856;28;20033;-65
2022/05/23 09:23:34;;;;;;;5.25;3.47;;;14.70;99.90;;;;;;5069829;28;20043;-67
2022/05/23 09:26:03;;;;;;;8.07;3.43;;;14.70;99.90;;;;;;5067697;28;20025;-66
2022/05/23 09:28:34;;;;;;;6.32;3.28;;;14.70;99.90;;;;;;5051377;28;20520;-62
2022/05/23 09:31:41;;;;;;;6.20;2.92;;;14.70;99.90;;;;;;5060704;28;20508;-67
2022/05/23 09:34:31;;;;;;;5.75;3.08;;;14.70;99.90;;;;;;4973754;28;20088;-67
2022/05/23 09:36:59;;;;;;;4.32;2.83;;;14.70;99.90;;;;;;4985781;28;20031;-65
2022/05/23 09:39:26;;;;;;;4.63;2.70;;;14.70;99.90;;;;;;5029379;28;20037;-62
2022/05/23 09:47:54;;;;;;;3.80;2.85;;;14.80;99.90;;;;;;5051379;28;20035;-63
2022/05/23 09:50:26;;;;;;;4.03;2.90;;;14.80;99.90;;;;;;5064125;28;20037;-60
2022/05/23 09:52:56;;;;;;;4.13;2.60;;;14.90;99.90;;;;;;5071235;28;20365;-60
2022/05/23 09:55:30;;;;;;;4.25;2.10;;;14.90;99.90;;;;;;5060114;28;20108;-60
2022/05/23 09:57:59;;;;;;;3.90;1.90;;;15.00;99.90;;;;;;5069529;28;20024;-60
2022/05/23 10:00:25;;;;;;;4.15;2.00;;;15.10;99.90;;;;;;5070042;28;20496;-60
2022/05/23 10:03:01;;;;;;;4.72;2.10;;;15.20;99.90;;;;;;5070146;28;20035;-59
2022/05/23 10:05:35;;;;;;;3.97;2.47;;;15.20;99.90;;;;;;5071430;28;20079;-60
2022/05/23 10:08:04;;;;;;;6.00;2.63;;;15.30;99.90;;;;;;5068822;28;20037;-60
2022/05/23 10:10:32;;;;;;;5.13;2.72;;;15.30;99.90;;;;;;5071141;28;20071;-61
2022/05/23 10:13:23;;;;;;;4.78;3.20;;;15.20;99.90;;;;;;5071031;28;20028;-61
2022/05/23 10:15:57;;;;;;;4.63;2.70;;;15.00;99.90;;;;;;5070975;28;20024;-63
2022/05/23 10:18:31;;;;;;;6.03;2.75;;;14.90;99.90;;;;;;5050896;28;20104;-60
2022/05/23 10:21:01;;;;;;;6.55;3.40;;;14.90;99.90;;;;;;5051043;28;20032;-62
2022/05/23 10:23:33;;;;;;;4.82;2.90;;;14.90;99.90;;;;;;5066078;28;20155;-63
2022/05/23 10:26:23;;;;;;;3.53;2.08;;;15.00;99.90;;;;;;5070231;28;20029;-63
2022/05/23 10:29:05;;;;;;;3.80;2.28;;;14.90;99.90;;;;;;5051063;28;20029;-60
2022/05/23 10:31:34;;;;;;;4.25;2.10;;;14.90;99.90;;;;;;5062121;28;20511;-63
2022/05/23 10:34:22;;;;;;;2.30;1.70;;;14.90;99.90;;;;;;5054089;28;20025;-59
2022/05/23 10:36:53;;;;;;;4.07;1.60;;;15.00;99.90;;;;;;5049895;28;20248;-60
2022/05/23 10:42:23;;;;;;;1.38;1.13;;;15.30;99.90;;;;;;5049763;28;20103;-61
2022/05/23 10:44:59;;;;;;;3.83;1.10;;;15.30;99.90;;;;;;5050784;28;20074;-63
2022/05/23 10:47:30;;;;;;;1.92;1.25;;;15.40;99.90;;;;;;5070166;28;20492;-64
2022/05/23 10:50:19;;;;;;;2.90;1.52;;;15.50;99.90;;;;;;5051019;28;20043;-64
2022/05/23 10:52:47;;;;;;;2.17;1.60;;;15.50;99.90;;;;;;5055302;28;20020;-63
2022/05/23 10:55:17;;;;;;;3.08;1.35;;;15.50;99.90;;;;;;5053815;28;20025;-62
2022/05/23 10:58:05;;;;;;;6.15;2.05;;;15.50;99.90;;;;;;5054348;28;20110;-62
2022/05/23 11:01:12;;;;;;;5.05;1.83;;;15.40;99.90;;;;;;5053053;28;20366;-59
2022/05/23 11:04:02;;;;;;;5.57;2.40;;;15.30;99.90;;;;;;5054112;28;20059;-61
2022/05/23 11:06:39;;;;;;;7.10;3.70;;;15.20;99.90;;;;;;5054142;28;20032;-61
2022/05/23 11:09:42;;;;;;;8.15;4.88;;;15.10;99.90;;;;;;5053851;28;20033;-63
2022/05/23 11:12:22;;;;;;;8.00;3.80;;;15.10;99.90;;;;;;5060303;28;20397;-64
2022/05/23 11:15:10;;;;;;;7.68;3.95;;;15.30;99.90;;;;;;5073947;28;20017;-63
2022/05/23 11:18:17;;;;;;;7.68;3.40;;;15.30;99.90;;;;;;5064090;28;20021;-62
2022/05/23 11:20:43;;;;;;;;;;;15.40;99.90;;;;;;5057117;28;20029;-62
2022/05/23 11:23:27;;;;;;;8.88;3.60;;;15.30;99.90;;;;;;5058137;28;19915;-62
2022/05/23 11:25:58;;;;;;;5.13;3.50;;;15.40;99.90;;;;;;5053780;28;20434;-62
2022/05/23 11:34:31;;;;;;;6.40;3.42;;;15.50;99.90;;;;;;5073303;28;20024;-62
2022/05/23 11:39:50;;;;;;;18.63;9.35;;;15.30;99.90;;;;;;5064432;28;20218;-62
2022/05/23 11:42:22;;;;;;;13.10;9.23;;;15.40;99.90;;;;;;5053304;28;20029;-62
2022/05/23 11:44:51;;;;;;;8.25;4.47;;;15.30;99.90;;;;;;5070890;28;20107;-59
2022/05/23 11:47:25;;;;;;;7.90;4.63;;;15.30;99.90;;;;;;5072767;28;20029;-61
2022/05/23 11:50:00;;;;;;;6.55;3.88;;;15.20;99.90;;;;;;5068918;28;20031;-64
2022/05/23 11:52:44;;;;;;;11.68;6.22;;;15.30;99.90;;;;;;5068534;28;20032;-61
2022/05/23 11:55:12;;;;;;;14.85;6.15;;;15.40;99.90;;;;;;5072864;28;20387;-59
2022/05/23 11:57:40;;;;;;;33.25;26.83;;;15.60;99.90;;;;;;5073161;28;20480;-61
2022/05/23 12:00:27;;;;;;;18.90;16.33;;;15.80;99.90;;;;;;5072915;28;20434;-59
2022/05/23 12:03:22;;;;;;;49.65;36.38;;;16.10;99.90;;;;;;5073188;28;20121;-63
2022/05/23 12:06:14;;;;;;;18.38;9.35;;;16.10;99.90;;;;;;5060077;28;20040;-65
2022/05/23 12:08:40;;;;;;;8.45;3.88;;;16.00;99.90;;;;;;5072972;28;20028;-65
2022/05/23 12:11:21;;;;;;;8.45;5.13;;;16.00;99.90;;;;;;5072746;28;20028;-62
2022/05/23 12:13:49;;;;;;;5.90;3.42;;;15.90;99.90;;;;;;5072521;28;20021;-59
2022/05/23 12:16:27;;;;;;;5.50;2.55;;;15.80;99.90;;;;;;5065665;28;20475;-60
2022/05/23 12:19:13;;;;;;;;;;;15.70;99.90;;;;;;5059515;28;20440;-59
2022/05/23 12:21:44;;;;;;;6.18;2.88;;;15.50;99.90;;;;;;5071305;28;20339;-59
2022/05/23 12:24:27;;;;;;;7.20;3.50;;;15.30;99.90;;;;;;5072134;28;20036;-60
2022/05/23 12:26:59;;;;;;;7.50;4.40;;;15.20;99.90;;;;;;5072908;28;20454;-59
2022/05/23 12:29:34;;;;;;;9.65;3.75;;;15.20;99.90;;;;;;5057823;28;20033;-60
2022/05/23 12:32:25;;;;;;;5.45;3.28;;;15.10;99.90;;;;;;5071778;28;20097;-65
2022/05/23 12:34:54;;;;;;;10.25;3.78;;;15.10;99.90;;;;;;5058837;28;20033;-67
2022/05/23 12:37:32;;;;;;;6.82;3.65;;;15.10;99.90;;;;;;5072329;28;20052;-65
2022/05/23 12:40:10;;;;;;;8.25;3.00;;;15.10;99.90;;;;;;5060503;28;20021;-59
2022/05/23 12:42:49;;;;;;;;;;;15.30;99.90;;;;;;5052741;28;20032;-62
2022/05/23 12:45:32;;;;;;;6.88;2.85;;;15.30;99.90;;;;;;5051911;28;20023;-60
2022/05/23 12:48:06;;;;;;;10.40;3.80;;;15.40;99.90;;;;;;5058885;28;20028;-60
2022/05/23 12:54:29;;;;;;;5.13;2.70;;;15.40;99.90;;;;;;5069654;28;20044;-60
2022/05/23 12:57:24;;;;;;;11.52;2.85;;;15.50;99.90;;;;;;5048621;28;20396;-62
2022/05/23 12:59:59;;;;;;;7.38;3.55;;;15.50;99.90;;;;;;5055936;28;20106;-60
2022/05/23 13:02:30;;;;;;;7.07;3.05;;;15.40;99.90;;;;;;5064838;28;20421;-62
2022/05/23 13:05:14;;;;;;;10.65;3.75;;;15.20;99.90;;;;;;5063682;28;20103;-63
2022/05/23 13:08:06;;;;;;;7.20;2.90;;;15.30;99.90;;;;;;5061444;28;20385;-61
2022/05/23 13:11:01;;;;;;;5.60;2.88;;;15.30;99.90;;;;;;5067240;28;20405;-61
2022/05/23 13:13:36;;;;;;;4.28;2.50;;;15.30;99.90;;;;;;5070289;28;20045;-63
2022/05/23 13:16:37;;;;;;;4.78;2.63;;;15.20;99.90;;;;;;5065696;28;20057;-59
2022/05/23 13:22:13;;;;;;;3.90;2.42;;;14.70;99.90;;;;;;5071436;28;20345;-61
2022/05/23 13:24:55;;;;;;;6.97;3.08;;;14.60;99.90;;;;;;5063287;28;20057;-60
2022/05/23 13:27:26;;;;;;;2.67;1.40;;;14.30;99.90;;;;;;5051610;28;20490;-61
2022/05/23 13:30:00;;;;;;;3.70;1.58;;;14.20;99.90;;;;;;5052694;28;20033;-61
2022/05/23 13:32:28;;;;;;;6.82;2.47;;;14.00;99.90;;;;;;5071423;28;20052;-61
2022/05/23 13:34:56;;;;;;;9.65;4.20;;;13.90;99.90;;;;;;5068729;28;20048;-60
2022/05/23 13:37:27;;;;;;;20.58;7.07;;;13.80;99.90;;;;;;5065501;28;20063;-60
2022/05/23 13:39:53;;;;;;;18.23;7.57;;;13.80;99.90;;;;;;5070069;28;20427;-58
2022/05/23 13:42:25;;;;;;;21.10;6.10;;;13.80;99.90;;;;;;5071130;28;20115;-62
2022/05/23 13:44:52;;;;;;;14.15;3.95;;;13.80;99.90;;;;;;5071320;28;20032;-59
2022/05/23 13:47:32;;;;;;;28.08;9.18;;;13.90;99.90;;;;;;5071110;28;20078;-59
2022/05/23 13:50:08;;;;;;;75.47;16.60;;;13.90;99.90;;;;;;5071301;28;20119;-58
2022/05/23 13:53:04;;;;;;;22.48;7.05;;;13.80;99.90;;;;;;5071692;28;20028;-59
2022/05/23 13:55:35;;;;;;;6.13;3.25;;;13.80;99.90;;;;;;5072007;28;20349;-59
2022/05/23 13:58:07;;;;;;;6.43;3.08;;;13.90;99.90;;;;;;5071596;28;20060;-60
2022/05/23 14:00:39;;;;;;;5.40;2.30;;;14.20;99.90;;;;;;5071511;28;20039;-59
2022/05/23 14:03:10;;;;;;;5.47;2.50;;;14.30;99.90;;;;;;5071648;28;20115;-59
2022/05/23 14:05:49;;;;;;;5.20;2.03;;;14.50;99.90;;;;;;5072318;28;20029;-60